sensor_id;sensor_type;location;lat;lon;timestamp;P1;durP1;ratioP1;P2;durP2;ratioP2
59788;SDS011;47353;51.614;5.530;2022-12-07T00:01:26;27.35;;;17.35;;
59788;SDS011;47353;51.614;5.530;2022-12-07T00:03:54;29.65;;;17.70;;
59788;SDS011;47353;51.614;5.530;2022-12-07T00:06:22;31.42;;;17.70;;
59788;SDS011;47353;51.614;5.530;2022-12-07T00:08:47;27.08;;;17.90;;
59788;SDS011;47353;51.614;5.530;2022-12-07T00:11:14;29.05;;;17.60;;
59788;SDS011;47353;51.614;5.530;2022-12-07T00:13:44;30.25;;;17.50;;
59788;SDS011;47353;51.614;5.530;2022-12-07T00:16:13;31.38;;;17.83;;
59788;SDS011;47353;51.614;5.530;2022-12-07T00:18:41;28.30;;;18.33;;
59788;SDS011;47353;51.614;5.530;2022-12-07T00:21:09;32.83;;;20.08;;
59788;SDS011;47353;51.614;5.530;2022-12-07T00:23:36;30.88;;;19.52;;
59788;SDS011;47353;51.614;5.530;2022-12-07T00:26:12;32.45;;;19.67;;
59788;SDS011;47353;51.614;5.530;2022-12-07T00:28:40;33.47;;;20.50;;
59788;SDS011;47353;51.614;5.530;2022-12-07T00:31:06;34.95;;;20.75;;
59788;SDS011;47353;51.614;5.530;2022-12-07T00:33:33;34.10;;;21.70;;
59788;SDS011;47353;51.614;5.530;2022-12-07T00:36:00;39.20;;;21.38;;
59788;SDS011;47353;51.614;5.530;2022-12-07T00:38:27;35.75;;;20.50;;
59788;SDS011;47353;51.614;5.530;2022-12-07T00:41:04;36.50;;;21.15;;
59788;SDS011;47353;51.614;5.530;2022-12-07T00:43:31;30.13;;;20.67;;
59788;SDS011;47353;51.614;5.530;2022-12-07T00:45:57;32.85;;;20.17;;
59788;SDS011;47353;51.614;5.530;2022-12-07T00:48:23;39.30;;;21.52;;
59788;SDS011;47353;51.614;5.530;2022-12-07T00:50:49;31.88;;;21.33;;
59788;SDS011;47353;51.614;5.530;2022-12-07T00:53:14;34.50;;;21.27;;
59788;SDS011;47353;51.614;5.530;2022-12-07T00:55:40;33.15;;;21.38;;
59788;SDS011;47353;51.614;5.530;2022-12-07T00:58:05;34.72;;;21.42;;
59788;SDS011;47353;51.614;5.530;2022-12-07T01:00:31;33.60;;;21.17;;
59788;SDS011;47353;51.614;5.530;2022-12-07T01:02:56;35.15;;;20.92;;
59788;SDS011;47353;51.614;5.530;2022-12-07T01:05:22;31.20;;;19.30;;
59788;SDS011;47353;51.614;5.530;2022-12-07T01:07:47;35.63;;;20.10;;
59788;SDS011;47353;51.614;5.530;2022-12-07T01:10:13;31.02;;;18.42;;
59788;SDS011;47353;51.614;5.530;2022-12-07T01:12:39;34.25;;;18.88;;
59788;SDS011;47353;51.614;5.530;2022-12-07T01:15:06;28.92;;;18.15;;
59788;SDS011;47353;51.614;5.530;2022-12-07T01:17:32;27.88;;;17.13;;
59788;SDS011;47353;51.614;5.530;2022-12-07T01:19:57;26.65;;;17.13;;
59788;SDS011;47353;51.614;5.530;2022-12-07T01:22:23;29.20;;;17.52;;
59788;SDS011;47353;51.614;5.530;2022-12-07T01:24:48;31.83;;;17.08;;
59788;SDS011;47353;51.614;5.530;2022-12-07T01:27:14;26.88;;;16.83;;
59788;SDS011;47353;51.614;5.530;2022-12-07T01:29:40;29.52;;;17.85;;
59788;SDS011;47353;51.614;5.530;2022-12-07T01:32:05;28.63;;;16.63;;
59788;SDS011;47353;51.614;5.530;2022-12-07T01:34:30;29.75;;;17.63;;
59788;SDS011;47353;51.614;5.530;2022-12-07T01:36:56;26.63;;;16.33;;
59788;SDS011;47353;51.614;5.530;2022-12-07T01:39:22;28.33;;;16.67;;
59788;SDS011;47353;51.614;5.530;2022-12-07T01:41:48;27.38;;;16.35;;
59788;SDS011;47353;51.614;5.530;2022-12-07T01:46:45;26.98;;;15.63;;
59788;SDS011;47353;51.614;5.530;2022-12-07T01:49:14;28.83;;;14.82;;
59788;SDS011;47353;51.614;5.530;2022-12-07T01:52:06;27.52;;;15.32;;
59788;SDS011;47353;51.614;5.530;2022-12-07T01:54:33;22.58;;;14.82;;
59788;SDS011;47353;51.614;5.530;2022-12-07T01:57:00;26.55;;;15.27;;
59788;SDS011;47353;51.614;5.530;2022-12-07T01:59:26;23.00;;;16.08;;
59788;SDS011;47353;51.614;5.530;2022-12-07T02:01:53;27.23;;;15.20;;
59788;SDS011;47353;51.614;5.530;2022-12-07T02:04:20;28.50;;;15.93;;
59788;SDS011;47353;51.614;5.530;2022-12-07T02:06:47;27.23;;;15.82;;
59788;SDS011;47353;51.614;5.530;2022-12-07T02:09:13;23.83;;;15.10;;
59788;SDS011;47353;51.614;5.530;2022-12-07T02:11:39;20.85;;;14.15;;
59788;SDS011;47353;51.614;5.530;2022-12-07T02:14:05;23.63;;;14.00;;
59788;SDS011;47353;51.614;5.530;2022-12-07T02:21:51;23.10;;;13.52;;
59788;SDS011;47353;51.614;5.530;2022-12-07T02:27:45;23.90;;;12.85;;
59788;SDS011;47353;51.614;5.530;2022-12-07T02:30:31;23.83;;;13.48;;
59788;SDS011;47353;51.614;5.530;2022-12-07T02:35:58;21.23;;;13.68;;
59788;SDS011;47353;51.614;5.530;2022-12-07T02:41:04;24.15;;;13.73;;
59788;SDS011;47353;51.614;5.530;2022-12-07T02:43:36;21.67;;;13.05;;
59788;SDS011;47353;51.614;5.530;2022-12-07T02:46:11;24.25;;;13.40;;
59788;SDS011;47353;51.614;5.530;2022-12-07T02:48:41;26.63;;;14.30;;
59788;SDS011;47353;51.614;5.530;2022-12-07T02:51:09;26.08;;;14.27;;
59788;SDS011;47353;51.614;5.530;2022-12-07T03:01:46;23.77;;;13.98;;
59788;SDS011;47353;51.614;5.530;2022-12-07T03:06:58;25.60;;;14.98;;
59788;SDS011;47353;51.614;5.530;2022-12-07T03:09:36;27.00;;;14.70;;
59788;SDS011;47353;51.614;5.530;2022-12-07T03:12:10;23.35;;;14.43;;
59788;SDS011;47353;51.614;5.530;2022-12-07T03:14:43;27.58;;;15.80;;
59788;SDS011;47353;51.614;5.530;2022-12-07T03:17:16;25.55;;;14.93;;
59788;SDS011;47353;51.614;5.530;2022-12-07T03:19:46;28.42;;;15.52;;
59788;SDS011;47353;51.614;5.530;2022-12-07T03:22:14;27.80;;;15.70;;
59788;SDS011;47353;51.614;5.530;2022-12-07T03:24:49;30.08;;;15.50;;
59788;SDS011;47353;51.614;5.530;2022-12-07T03:27:29;26.17;;;14.20;;
59788;SDS011;47353;51.614;5.530;2022-12-07T03:30:00;24.80;;;14.07;;
59788;SDS011;47353;51.614;5.530;2022-12-07T03:32:37;24.33;;;13.77;;
59788;SDS011;47353;51.614;5.530;2022-12-07T03:37:46;22.67;;;12.82;;
59788;SDS011;47353;51.614;5.530;2022-12-07T03:42:50;25.90;;;12.23;;
59788;SDS011;47353;51.614;5.530;2022-12-07T03:45:17;19.73;;;12.65;;
59788;SDS011;47353;51.614;5.530;2022-12-07T03:47:54;24.17;;;12.95;;
59788;SDS011;47353;51.614;5.530;2022-12-07T03:53:19;21.48;;;12.55;;
59788;SDS011;47353;51.614;5.530;2022-12-07T03:55:50;22.35;;;12.38;;
59788;SDS011;47353;51.614;5.530;2022-12-07T03:58:18;18.25;;;12.10;;
59788;SDS011;47353;51.614;5.530;2022-12-07T04:00:46;21.33;;;12.30;;
59788;SDS011;47353;51.614;5.530;2022-12-07T04:03:13;23.52;;;11.75;;
59788;SDS011;47353;51.614;5.530;2022-12-07T04:05:38;18.63;;;11.90;;
59788;SDS011;47353;51.614;5.530;2022-12-07T04:08:04;18.23;;;11.63;;
59788;SDS011;47353;51.614;5.530;2022-12-07T04:10:30;22.58;;;11.75;;
59788;SDS011;47353;51.614;5.530;2022-12-07T04:12:55;21.05;;;11.18;;
59788;SDS011;47353;51.614;5.530;2022-12-07T04:15:21;17.02;;;10.50;;
59788;SDS011;47353;51.614;5.530;2022-12-07T04:17:47;16.38;;;10.60;;
59788;SDS011;47353;51.614;5.530;2022-12-07T04:20:12;19.90;;;11.95;;
59788;SDS011;47353;51.614;5.530;2022-12-07T04:22:38;17.92;;;11.20;;
59788;SDS011;47353;51.614;5.530;2022-12-07T04:25:03;19.67;;;11.15;;
59788;SDS011;47353;51.614;5.530;2022-12-07T04:27:29;17.13;;;11.23;;
59788;SDS011;47353;51.614;5.530;2022-12-07T04:29:54;20.00;;;11.90;;
59788;SDS011;47353;51.614;5.530;2022-12-07T04:32:20;22.27;;;12.32;;
59788;SDS011;47353;51.614;5.530;2022-12-07T04:34:46;15.55;;;11.13;;
59788;SDS011;47353;51.614;5.530;2022-12-07T04:37:12;17.10;;;11.18;;
59788;SDS011;47353;51.614;5.530;2022-12-07T04:39:37;21.48;;;11.35;;
59788;SDS011;47353;51.614;5.530;2022-12-07T04:42:02;19.55;;;11.27;;
59788;SDS011;47353;51.614;5.530;2022-12-07T04:44:28;15.38;;;10.25;;
59788;SDS011;47353;51.614;5.530;2022-12-07T04:46:54;15.88;;;9.70;;
59788;SDS011;47353;51.614;5.530;2022-12-07T04:49:20;18.20;;;10.55;;
59788;SDS011;47353;51.614;5.530;2022-12-07T04:51:46;18.27;;;10.43;;
59788;SDS011;47353;51.614;5.530;2022-12-07T04:54:12;18.73;;;9.93;;
59788;SDS011;47353;51.614;5.530;2022-12-07T04:56:39;16.85;;;10.43;;
59788;SDS011;47353;51.614;5.530;2022-12-07T04:59:05;14.55;;;9.07;;
59788;SDS011;47353;51.614;5.530;2022-12-07T05:01:31;19.65;;;9.80;;
59788;SDS011;47353;51.614;5.530;2022-12-07T05:03:57;14.63;;;9.18;;
59788;SDS011;47353;51.614;5.530;2022-12-07T05:06:23;17.85;;;9.85;;
59788;SDS011;47353;51.614;5.530;2022-12-07T05:08:48;13.60;;;9.07;;
59788;SDS011;47353;51.614;5.530;2022-12-07T05:11:14;18.20;;;9.43;;
59788;SDS011;47353;51.614;5.530;2022-12-07T05:14:00;17.33;;;10.10;;
59788;SDS011;47353;51.614;5.530;2022-12-07T05:16:26;21.42;;;10.75;;
59788;SDS011;47353;51.614;5.530;2022-12-07T05:18:52;22.27;;;11.65;;
59788;SDS011;47353;51.614;5.530;2022-12-07T05:21:18;25.65;;;12.02;;
59788;SDS011;47353;51.614;5.530;2022-12-07T05:23:43;23.02;;;11.07;;
59788;SDS011;47353;51.614;5.530;2022-12-07T05:26:09;22.27;;;11.02;;
59788;SDS011;47353;51.614;5.530;2022-12-07T05:28:34;18.60;;;9.93;;
59788;SDS011;47353;51.614;5.530;2022-12-07T05:31:00;15.15;;;9.63;;
59788;SDS011;47353;51.614;5.530;2022-12-07T05:33:25;15.93;;;9.38;;
59788;SDS011;47353;51.614;5.530;2022-12-07T05:35:51;20.10;;;9.57;;
59788;SDS011;47353;51.614;5.530;2022-12-07T05:38:16;15.80;;;9.23;;
59788;SDS011;47353;51.614;5.530;2022-12-07T05:40:41;23.17;;;10.10;;
59788;SDS011;47353;51.614;5.530;2022-12-07T05:43:07;14.57;;;9.18;;
59788;SDS011;47353;51.614;5.530;2022-12-07T05:45:32;17.67;;;9.73;;
59788;SDS011;47353;51.614;5.530;2022-12-07T05:47:58;17.50;;;9.80;;
59788;SDS011;47353;51.614;5.530;2022-12-07T05:50:23;17.20;;;10.25;;
59788;SDS011;47353;51.614;5.530;2022-12-07T05:52:48;19.48;;;10.13;;
59788;SDS011;47353;51.614;5.530;2022-12-07T05:55:14;17.70;;;10.20;;
59788;SDS011;47353;51.614;5.530;2022-12-07T05:57:39;19.20;;;9.50;;
59788;SDS011;47353;51.614;5.530;2022-12-07T06:00:05;18.17;;;9.88;;
59788;SDS011;47353;51.614;5.530;2022-12-07T06:02:30;17.85;;;9.80;;
59788;SDS011;47353;51.614;5.530;2022-12-07T06:04:56;25.27;;;12.38;;
59788;SDS011;47353;51.614;5.530;2022-12-07T06:07:21;22.17;;;11.85;;
59788;SDS011;47353;51.614;5.530;2022-12-07T06:09:47;25.33;;;13.90;;
59788;SDS011;47353;51.614;5.530;2022-12-07T06:12:12;28.25;;;13.98;;
59788;SDS011;47353;51.614;5.530;2022-12-07T06:14:57;27.05;;;14.45;;
59788;SDS011;47353;51.614;5.530;2022-12-07T06:17:23;32.45;;;15.80;;
59788;SDS011;47353;51.614;5.530;2022-12-07T06:19:49;34.47;;;15.35;;
59788;SDS011;47353;51.614;5.530;2022-12-07T06:22:14;30.75;;;14.85;;
59788;SDS011;47353;51.614;5.530;2022-12-07T06:24:41;25.25;;;13.90;;
59788;SDS011;47353;51.614;5.530;2022-12-07T06:27:06;27.75;;;14.77;;
59788;SDS011;47353;51.614;5.530;2022-12-07T06:29:32;30.60;;;14.40;;
59788;SDS011;47353;51.614;5.530;2022-12-07T06:31:58;27.50;;;15.60;;
59788;SDS011;47353;51.614;5.530;2022-12-07T06:34:24;31.02;;;15.55;;
59788;SDS011;47353;51.614;5.530;2022-12-07T06:36:50;26.27;;;13.70;;
59788;SDS011;47353;51.614;5.530;2022-12-07T06:39:18;28.85;;;14.77;;
59788;SDS011;47353;51.614;5.530;2022-12-07T06:41:45;28.15;;;15.82;;
59788;SDS011;47353;51.614;5.530;2022-12-07T06:44:10;26.15;;;15.30;;
59788;SDS011;47353;51.614;5.530;2022-12-07T06:46:36;29.45;;;14.25;;
59788;SDS011;47353;51.614;5.530;2022-12-07T06:49:02;24.48;;;13.63;;
59788;SDS011;47353;51.614;5.530;2022-12-07T06:51:28;21.50;;;13.45;;
59788;SDS011;47353;51.614;5.530;2022-12-07T06:53:54;29.27;;;13.55;;
59788;SDS011;47353;51.614;5.530;2022-12-07T06:56:20;29.65;;;15.55;;
59788;SDS011;47353;51.614;5.530;2022-12-07T06:58:45;28.02;;;15.13;;
59788;SDS011;47353;51.614;5.530;2022-12-07T07:01:15;29.52;;;15.57;;
59788;SDS011;47353;51.614;5.530;2022-12-07T07:03:41;24.73;;;14.98;;
59788;SDS011;47353;51.614;5.530;2022-12-07T07:06:07;32.08;;;16.48;;
59788;SDS011;47353;51.614;5.530;2022-12-07T07:08:33;29.70;;;15.05;;
59788;SDS011;47353;51.614;5.530;2022-12-07T07:10:59;28.92;;;15.18;;
59788;SDS011;47353;51.614;5.530;2022-12-07T07:13:25;28.23;;;14.70;;
59788;SDS011;47353;51.614;5.530;2022-12-07T07:15:51;28.02;;;15.35;;
59788;SDS011;47353;51.614;5.530;2022-12-07T07:18:17;25.95;;;14.50;;
59788;SDS011;47353;51.614;5.530;2022-12-07T07:20:42;28.40;;;14.25;;
59788;SDS011;47353;51.614;5.530;2022-12-07T07:23:07;30.40;;;15.18;;
59788;SDS011;47353;51.614;5.530;2022-12-07T07:25:33;26.70;;;13.98;;
59788;SDS011;47353;51.614;5.530;2022-12-07T07:27:59;21.23;;;13.65;;
59788;SDS011;47353;51.614;5.530;2022-12-07T07:30:24;27.92;;;14.40;;
59788;SDS011;47353;51.614;5.530;2022-12-07T07:32:50;29.95;;;14.63;;
59788;SDS011;47353;51.614;5.530;2022-12-07T07:35:15;26.27;;;14.40;;
59788;SDS011;47353;51.614;5.530;2022-12-07T10:28:12;8.70;;;4.07;;
59788;SDS011;47353;51.614;5.530;2022-12-07T10:30:56;9.15;;;3.60;;
59788;SDS011;47353;51.614;5.530;2022-12-07T10:33:37;7.00;;;3.55;;
59788;SDS011;47353;51.614;5.530;2022-12-07T10:36:17;12.30;;;3.67;;
59788;SDS011;47353;51.614;5.530;2022-12-07T10:38:50;12.52;;;3.72;;
59788;SDS011;47353;51.614;5.530;2022-12-07T10:41:18;8.70;;;3.42;;
59788;SDS011;47353;51.614;5.530;2022-12-07T10:43:48;9.32;;;3.03;;
59788;SDS011;47353;51.614;5.530;2022-12-07T10:46:23;8.15;;;3.33;;
59788;SDS011;47353;51.614;5.530;2022-12-07T10:49:05;8.77;;;3.72;;
59788;SDS011;47353;51.614;5.530;2022-12-07T10:51:44;7.70;;;3.70;;
59788;SDS011;47353;51.614;5.530;2022-12-07T10:56:57;9.68;;;3.50;;
59788;SDS011;47353;51.614;5.530;2022-12-07T11:04:54;13.88;;;4.80;;
59788;SDS011;47353;51.614;5.530;2022-12-07T11:15:39;11.27;;;4.18;;
59788;SDS011;47353;51.614;5.530;2022-12-07T11:21:48;6.32;;;3.83;;
59788;SDS011;47353;51.614;5.530;2022-12-07T11:27:16;10.82;;;4.68;;
59788;SDS011;47353;51.614;5.530;2022-12-07T11:37:55;10.25;;;3.60;;
59788;SDS011;47353;51.614;5.530;2022-12-07T11:45:37;8.48;;;3.92;;
59788;SDS011;47353;51.614;5.530;2022-12-07T11:50:43;12.82;;;5.25;;
59788;SDS011;47353;51.614;5.530;2022-12-07T11:56:19;14.07;;;5.38;;
59788;SDS011;47353;51.614;5.530;2022-12-07T11:58:48;9.35;;;3.85;;
59788;SDS011;47353;51.614;5.530;2022-12-07T12:01:21;10.57;;;4.60;;
59788;SDS011;47353;51.614;5.530;2022-12-07T12:06:29;9.00;;;4.05;;
59788;SDS011;47353;51.614;5.530;2022-12-07T12:14:35;9.85;;;3.50;;
59788;SDS011;47353;51.614;5.530;2022-12-07T12:22:33;9.25;;;3.55;;
59788;SDS011;47353;51.614;5.530;2022-12-07T12:25:03;8.35;;;3.58;;
59788;SDS011;47353;51.614;5.530;2022-12-07T12:27:32;7.90;;;3.50;;
59788;SDS011;47353;51.614;5.530;2022-12-07T12:30:01;9.38;;;3.55;;
59788;SDS011;47353;51.614;5.530;2022-12-07T12:32:38;7.15;;;3.33;;
59788;SDS011;47353;51.614;5.530;2022-12-07T12:35:20;10.43;;;3.65;;
59788;SDS011;47353;51.614;5.530;2022-12-07T12:37:56;5.43;;;2.85;;
59788;SDS011;47353;51.614;5.530;2022-12-07T12:40:52;8.48;;;2.78;;
59788;SDS011;47353;51.614;5.530;2022-12-07T12:54:19;5.80;;;2.50;;
59788;SDS011;47353;51.614;5.530;2022-12-07T12:59:40;7.63;;;3.05;;
59788;SDS011;47353;51.614;5.530;2022-12-07T13:02:20;8.18;;;2.50;;
59788;SDS011;47353;51.614;5.530;2022-12-07T13:15:35;5.85;;;2.03;;
59788;SDS011;47353;51.614;5.530;2022-12-07T13:20:56;4.63;;;1.90;;
59788;SDS011;47353;51.614;5.530;2022-12-07T13:28:39;4.72;;;2.08;;
59788;SDS011;47353;51.614;5.530;2022-12-07T13:33:51;6.60;;;1.88;;
59788;SDS011;47353;51.614;5.530;2022-12-07T13:36:18;5.82;;;1.40;;
59788;SDS011;47353;51.614;5.530;2022-12-07T13:39:10;6.72;;;1.90;;
59788;SDS011;47353;51.614;5.530;2022-12-07T13:41:42;4.15;;;1.67;;
59788;SDS011;47353;51.614;5.530;2022-12-07T13:44:10;4.95;;;1.70;;
59788;SDS011;47353;51.614;5.530;2022-12-07T13:51:48;7.53;;;2.40;;
59788;SDS011;47353;51.614;5.530;2022-12-07T13:54:14;8.68;;;2.70;;
59788;SDS011;47353;51.614;5.530;2022-12-07T13:56:40;5.88;;;2.40;;
59788;SDS011;47353;51.614;5.530;2022-12-07T13:59:13;6.10;;;3.03;;
59788;SDS011;47353;51.614;5.530;2022-12-07T14:01:44;8.50;;;2.60;;
59788;SDS011;47353;51.614;5.530;2022-12-07T14:04:46;12.20;;;3.50;;
59788;SDS011;47353;51.614;5.530;2022-12-07T14:10:03;7.75;;;2.72;;
59788;SDS011;47353;51.614;5.530;2022-12-07T14:12:32;4.95;;;2.33;;
59788;SDS011;47353;51.614;5.530;2022-12-07T14:15:02;6.40;;;2.58;;
59788;SDS011;47353;51.614;5.530;2022-12-07T14:17:28;9.90;;;3.28;;
59788;SDS011;47353;51.614;5.530;2022-12-07T14:19:57;10.02;;;3.03;;
59788;SDS011;47353;51.614;5.530;2022-12-07T14:22:37;8.18;;;3.60;;
59788;SDS011;47353;51.614;5.530;2022-12-07T14:27:38;14.90;;;5.93;;
59788;SDS011;47353;51.614;5.530;2022-12-07T14:30:05;8.75;;;3.30;;
59788;SDS011;47353;51.614;5.530;2022-12-07T14:32:31;8.45;;;2.50;;
59788;SDS011;47353;51.614;5.530;2022-12-07T14:35:01;5.57;;;2.50;;
59788;SDS011;47353;51.614;5.530;2022-12-07T14:37:27;4.07;;;2.03;;
59788;SDS011;47353;51.614;5.530;2022-12-07T14:39:55;3.95;;;1.70;;
59788;SDS011;47353;51.614;5.530;2022-12-07T14:42:20;3.75;;;1.42;;
59788;SDS011;47353;51.614;5.530;2022-12-07T14:44:49;7.15;;;2.85;;
59788;SDS011;47353;51.614;5.530;2022-12-07T14:47:14;9.27;;;4.90;;
59788;SDS011;47353;51.614;5.530;2022-12-07T14:49:39;13.18;;;5.50;;
59788;SDS011;47353;51.614;5.530;2022-12-07T14:52:05;8.48;;;4.97;;
59788;SDS011;47353;51.614;5.530;2022-12-07T14:54:35;10.20;;;5.40;;
59788;SDS011;47353;51.614;5.530;2022-12-07T14:57:01;11.00;;;5.72;;
59788;SDS011;47353;51.614;5.530;2022-12-07T14:59:26;8.25;;;3.90;;
59788;SDS011;47353;51.614;5.530;2022-12-07T15:01:52;7.00;;;3.47;;
59788;SDS011;47353;51.614;5.530;2022-12-07T15:04:17;6.15;;;2.78;;
59788;SDS011;47353;51.614;5.530;2022-12-07T15:06:53;3.15;;;1.80;;
59788;SDS011;47353;51.614;5.530;2022-12-07T15:09:20;3.92;;;1.83;;
59788;SDS011;47353;51.614;5.530;2022-12-07T15:11:46;7.68;;;1.75;;
59788;SDS011;47353;51.614;5.530;2022-12-07T15:14:11;4.70;;;1.70;;
59788;SDS011;47353;51.614;5.530;2022-12-07T15:16:38;3.97;;;1.70;;
59788;SDS011;47353;51.614;5.530;2022-12-07T15:19:05;5.35;;;2.00;;
59788;SDS011;47353;51.614;5.530;2022-12-07T15:21:35;4.82;;;2.10;;
59788;SDS011;47353;51.614;5.530;2022-12-07T15:24:00;3.80;;;1.75;;
59788;SDS011;47353;51.614;5.530;2022-12-07T15:26:26;8.02;;;2.40;;
59788;SDS011;47353;51.614;5.530;2022-12-07T15:28:52;6.93;;;2.80;;
59788;SDS011;47353;51.614;5.530;2022-12-07T15:31:18;11.65;;;4.10;;
59788;SDS011;47353;51.614;5.530;2022-12-07T15:33:43;10.85;;;3.67;;
59788;SDS011;47353;51.614;5.530;2022-12-07T15:36:13;7.93;;;2.88;;
59788;SDS011;47353;51.614;5.530;2022-12-07T15:38:45;4.43;;;2.45;;
59788;SDS011;47353;51.614;5.530;2022-12-07T15:41:10;11.75;;;3.05;;
59788;SDS011;47353;51.614;5.530;2022-12-07T15:43:36;12.23;;;4.72;;
59788;SDS011;47353;51.614;5.530;2022-12-07T15:46:20;17.63;;;6.50;;
59788;SDS011;47353;51.614;5.530;2022-12-07T15:48:45;12.60;;;6.18;;
59788;SDS011;47353;51.614;5.530;2022-12-07T15:51:11;17.92;;;7.57;;
59788;SDS011;47353;51.614;5.530;2022-12-07T15:53:36;12.88;;;6.15;;
59788;SDS011;47353;51.614;5.530;2022-12-07T15:56:05;15.10;;;5.85;;
59788;SDS011;47353;51.614;5.530;2022-12-07T15:58:31;13.50;;;5.70;;
59788;SDS011;47353;51.614;5.530;2022-12-07T16:00:57;15.68;;;6.70;;
59788;SDS011;47353;51.614;5.530;2022-12-07T16:03:22;10.82;;;5.82;;
59788;SDS011;47353;51.614;5.530;2022-12-07T16:05:48;13.82;;;7.28;;
59788;SDS011;47353;51.614;5.530;2022-12-07T16:08:15;14.50;;;6.68;;
59788;SDS011;47353;51.614;5.530;2022-12-07T16:10:40;22.35;;;10.70;;
59788;SDS011;47353;51.614;5.530;2022-12-07T16:13:08;13.15;;;6.80;;
59788;SDS011;47353;51.614;5.530;2022-12-07T16:15:41;10.90;;;6.10;;
59788;SDS011;47353;51.614;5.530;2022-12-07T16:18:07;8.98;;;5.43;;
59788;SDS011;47353;51.614;5.530;2022-12-07T16:20:33;12.10;;;5.93;;
59788;SDS011;47353;51.614;5.530;2022-12-07T16:22:59;10.82;;;5.60;;
59788;SDS011;47353;51.614;5.530;2022-12-07T16:25:24;10.13;;;6.18;;
59788;SDS011;47353;51.614;5.530;2022-12-07T16:27:50;8.85;;;5.53;;
59788;SDS011;47353;51.614;5.530;2022-12-07T16:30:16;9.40;;;5.75;;
59788;SDS011;47353;51.614;5.530;2022-12-07T16:32:42;7.93;;;4.90;;
59788;SDS011;47353;51.614;5.530;2022-12-07T16:35:08;8.50;;;5.10;;
59788;SDS011;47353;51.614;5.530;2022-12-07T16:37:34;11.18;;;5.70;;
59788;SDS011;47353;51.614;5.530;2022-12-07T16:39:59;9.93;;;5.63;;
59788;SDS011;47353;51.614;5.530;2022-12-07T16:42:25;9.07;;;6.20;;
59788;SDS011;47353;51.614;5.530;2022-12-07T16:44:51;11.18;;;6.22;;
59788;SDS011;47353;51.614;5.530;2022-12-07T16:47:16;8.80;;;6.07;;
59788;SDS011;47353;51.614;5.530;2022-12-07T16:49:42;9.45;;;6.38;;
59788;SDS011;47353;51.614;5.530;2022-12-07T16:52:08;10.75;;;7.18;;
59788;SDS011;47353;51.614;5.530;2022-12-07T16:54:33;10.70;;;6.53;;
59788;SDS011;47353;51.614;5.530;2022-12-07T16:56:59;12.75;;;7.30;;
59788;SDS011;47353;51.614;5.530;2022-12-07T16:59:24;11.98;;;7.75;;
59788;SDS011;47353;51.614;5.530;2022-12-07T17:01:50;10.95;;;7.53;;
59788;SDS011;47353;51.614;5.530;2022-12-07T17:04:16;13.63;;;8.05;;
59788;SDS011;47353;51.614;5.530;2022-12-07T17:06:42;9.38;;;7.63;;
59788;SDS011;47353;51.614;5.530;2022-12-07T17:09:07;17.67;;;8.43;;
59788;SDS011;47353;51.614;5.530;2022-12-07T17:11:34;13.93;;;8.77;;
59788;SDS011;47353;51.614;5.530;2022-12-07T17:14:00;13.95;;;9.00;;
59788;SDS011;47353;51.614;5.530;2022-12-07T17:16:45;10.32;;;7.25;;
59788;SDS011;47353;51.614;5.530;2022-12-07T17:19:11;11.20;;;8.45;;
59788;SDS011;47353;51.614;5.530;2022-12-07T17:21:38;13.18;;;8.60;;
59788;SDS011;47353;51.614;5.530;2022-12-07T17:24:06;12.60;;;8.18;;
59788;SDS011;47353;51.614;5.530;2022-12-07T17:26:34;17.85;;;10.60;;
59788;SDS011;47353;51.614;5.530;2022-12-07T17:29:01;19.92;;;10.20;;
59788;SDS011;47353;51.614;5.530;2022-12-07T17:31:27;17.90;;;11.70;;
59788;SDS011;47353;51.614;5.530;2022-12-07T17:33:52;19.90;;;9.82;;
59788;SDS011;47353;51.614;5.530;2022-12-07T17:36:19;19.88;;;9.57;;
59788;SDS011;47353;51.614;5.530;2022-12-07T17:38:49;19.35;;;9.63;;
59788;SDS011;47353;51.614;5.530;2022-12-07T17:41:17;20.50;;;11.45;;
59788;SDS011;47353;51.614;5.530;2022-12-07T17:44:06;19.58;;;11.25;;
59788;SDS011;47353;51.614;5.530;2022-12-07T17:46:33;21.23;;;11.10;;
59788;SDS011;47353;51.614;5.530;2022-12-07T17:48:59;21.05;;;10.93;;
59788;SDS011;47353;51.614;5.530;2022-12-07T17:51:25;19.80;;;10.07;;
59788;SDS011;47353;51.614;5.530;2022-12-07T17:54:09;18.42;;;10.50;;
59788;SDS011;47353;51.614;5.530;2022-12-07T17:56:35;16.48;;;8.48;;
59788;SDS011;47353;51.614;5.530;2022-12-07T17:59:01;21.73;;;10.63;;
59788;SDS011;47353;51.614;5.530;2022-12-07T18:01:27;17.33;;;8.25;;
59788;SDS011;47353;51.614;5.530;2022-12-07T18:03:52;14.13;;;7.97;;
59788;SDS011;47353;51.614;5.530;2022-12-07T18:06:17;10.57;;;6.65;;
59788;SDS011;47353;51.614;5.530;2022-12-07T18:08:43;11.85;;;7.75;;
59788;SDS011;47353;51.614;5.530;2022-12-07T18:11:08;20.05;;;9.13;;
59788;SDS011;47353;51.614;5.530;2022-12-07T18:13:34;22.05;;;10.98;;
59788;SDS011;47353;51.614;5.530;2022-12-07T18:16:00;22.40;;;9.88;;
59788;SDS011;47353;51.614;5.530;2022-12-07T18:18:26;20.67;;;11.60;;
59788;SDS011;47353;51.614;5.530;2022-12-07T18:20:52;18.83;;;10.13;;
59788;SDS011;47353;51.614;5.530;2022-12-07T18:23:17;22.15;;;10.35;;
59788;SDS011;47353;51.614;5.530;2022-12-07T18:25:47;22.17;;;11.20;;
59788;SDS011;47353;51.614;5.530;2022-12-07T18:28:16;20.80;;;10.03;;
59788;SDS011;47353;51.614;5.530;2022-12-07T18:30:42;21.80;;;10.38;;
59788;SDS011;47353;51.614;5.530;2022-12-07T18:33:15;18.88;;;9.18;;
59788;SDS011;47353;51.614;5.530;2022-12-07T18:35:43;14.70;;;7.60;;
59788;SDS011;47353;51.614;5.530;2022-12-07T18:38:09;9.40;;;6.65;;
59788;SDS011;47353;51.614;5.530;2022-12-07T18:40:38;12.77;;;6.78;;
59788;SDS011;47353;51.614;5.530;2022-12-07T18:43:05;14.00;;;7.50;;
59788;SDS011;47353;51.614;5.530;2022-12-07T18:45:35;11.93;;;6.72;;
59788;SDS011;47353;51.614;5.530;2022-12-07T18:48:01;10.95;;;6.32;;
59788;SDS011;47353;51.614;5.530;2022-12-07T18:50:26;11.50;;;6.40;;
59788;SDS011;47353;51.614;5.530;2022-12-07T18:52:52;9.25;;;6.00;;
59788;SDS011;47353;51.614;5.530;2022-12-07T18:55:17;9.13;;;6.32;;
59788;SDS011;47353;51.614;5.530;2022-12-07T18:57:43;9.32;;;6.25;;
59788;SDS011;47353;51.614;5.530;2022-12-07T19:00:09;11.65;;;6.35;;
59788;SDS011;47353;51.614;5.530;2022-12-07T19:02:35;16.88;;;6.95;;
59788;SDS011;47353;51.614;5.530;2022-12-07T19:05:00;10.60;;;5.60;;
59788;SDS011;47353;51.614;5.530;2022-12-07T19:07:26;9.93;;;6.13;;
59788;SDS011;47353;51.614;5.530;2022-12-07T19:09:51;9.43;;;6.15;;
59788;SDS011;47353;51.614;5.530;2022-12-07T19:12:17;12.15;;;6.60;;
59788;SDS011;47353;51.614;5.530;2022-12-07T19:14:42;14.48;;;6.60;;
59788;SDS011;47353;51.614;5.530;2022-12-07T19:17:09;14.57;;;7.15;;
59788;SDS011;47353;51.614;5.530;2022-12-07T19:19:41;12.65;;;6.60;;
59788;SDS011;47353;51.614;5.530;2022-12-07T19:22:08;10.95;;;7.20;;
59788;SDS011;47353;51.614;5.530;2022-12-07T19:24:38;13.80;;;6.65;;
59788;SDS011;47353;51.614;5.530;2022-12-07T19:27:04;12.68;;;6.65;;
59788;SDS011;47353;51.614;5.530;2022-12-07T19:29:30;10.45;;;6.13;;
59788;SDS011;47353;51.614;5.530;2022-12-07T19:31:56;12.82;;;5.78;;
59788;SDS011;47353;51.614;5.530;2022-12-07T19:34:26;11.95;;;6.03;;
59788;SDS011;47353;51.614;5.530;2022-12-07T19:36:52;9.52;;;5.60;;
59788;SDS011;47353;51.614;5.530;2022-12-07T19:39:17;10.20;;;5.43;;
59788;SDS011;47353;51.614;5.530;2022-12-07T19:41:43;11.75;;;5.72;;
59788;SDS011;47353;51.614;5.530;2022-12-07T19:44:12;9.70;;;6.40;;